06:43
Airports
History
Links
Donate
Help keep this website running!
PayPal
Bitcoin
This page is community maintained. The information is intended for PC simulator navigation or reference.
Always use approved charts for navigation.
99R
Chandler
Chandler (99R)
Boyce, Louisiana, United States (71409)
4
Lat/Lng:31° 18' 24.65" N / 92° 36' 41.52" W
31.306848 / -92.611532
Elevation:82'ft / 25mMSL
ID / ICAO:99R
Runways:1
Longest:15-33
Grass 756m / 2,482ft
Nearby Weather05:53 GMT 2017-12-12
Nearby weather at KAEX, Alexandria Intl located 4.0 nautical miles from 99R
Altimeter: 30.07
Visibility: 10.0 statute miles
Wind: 5 knots (from 270°)
Temp: 10°c / 50°f
Humidity: 61.7%

METAR: KAEX 120553Z 27005KT 10SM CLR 10/03 A3007 RMK AO2 SLP187 T01000028 10150 20100 402220006 58009

(Powered by phpweather)
Nearby VORs <50NM
Nearby NDBs
Runway 15 / 33
Dimensions:756.4 x 30.5m 2482' x 100'ft
Surface:Grass
Runway 15 [A]Runway 33 [B]
Heading:154°TH 334°TH
Lat:
Lng:
31° 18' 35.75"N
92° 36' 47.85"W
31° 18' 13.56"N
92° 36' 35.18"W
User Notes and Comments
31° 18' 24.65" N / 92° 36' 41.52" W
Distance To
Airport ID:
Nearby Airports
(C) Alexandria Intl 4.0 NM
KAEX ( WX ) ENE 69°
(U) Pineville Muni 10.2 NM
2L0 ENE 76°
(R) Roland 12.8 NM
70LA SW 221°
(U) Woodworth 14.1 NM
1R4 SSE 152°
(U) Pollock Muni 14.8 NM
L66 NE 36°
4 Summerville 15.0 NM
LA22 SE 131°
(R) Summerville Airstrip 15.0 NM
LA35 SE 131°
VFR Chart
Flight Planning at SkyVector.com